Time;durP1;ratioP1;P1;durP2;ratioP2;P2;SDS_P1;SDS_P2;PMS_P1;PMS_P2;Temp;Humidity;BMP_temperature;BMP_pressure;BME280_temperature;BME280_humidity;BME280_pressure;Samples;Min_cycle;Max_cycle;Signal;HPM_P1;HPM_P2
2022/09/29 00:00:38;;;;;;;0.70;0.50;;;;;;;8.93;100.00;98801.84;1676960;83;21018;-47
2022/09/29 00:03:05;;;;;;;3.80;0.68;;;;;;;8.93;100.00;98802.69;1671090;83;21120;-47
2022/09/29 00:05:31;;;;;;;1.45;0.60;;;;;;;8.94;100.00;98804.42;1674776;83;21935;-47
2022/09/29 00:07:59;;;;;;;3.62;0.68;;;;;;;8.93;100.00;98808.56;1670579;83;21469;-48
2022/09/29 00:10:25;;;;;;;13.65;0.80;;;;;;;8.90;100.00;98806.91;1676306;83;21148;-48
2022/09/29 00:12:53;;;;;;;3.27;0.60;;;;;;;8.88;100.00;98811.48;1670190;83;21109;-47
2022/09/29 00:15:20;;;;;;;0.60;0.60;;;;;;;8.84;100.00;98811.28;1673204;83;21800;-47
2022/09/29 00:17:47;;;;;;;7.25;0.60;;;;;;;8.81;100.00;98815.94;1678794;83;23229;-48
2022/09/29 00:20:15;;;;;;;0.50;0.50;;;;;;;8.78;100.00;98821.47;1671472;83;21014;-47
2022/09/29 00:22:41;;;;;;;0.50;0.50;;;;;;;8.74;100.00;98828.84;1676365;83;21065;-47
2022/09/29 00:25:08;;;;;;;2.72;0.57;;;;;;;8.73;100.00;98827.10;1675149;83;21007;-48
2022/09/29 00:27:35;;;;;;;0.88;0.60;;;;;;;8.73;100.00;98827.97;1671803;83;21622;-47
2022/09/29 00:30:01;;;;;;;2.22;0.50;;;;;;;8.75;100.00;98831.05;1671073;83;21848;-48
2022/09/29 00:32:28;;;;;;;4.22;0.57;;;;;;;8.76;100.00;98828.29;1667451;83;21081;-47
2022/09/29 00:34:54;;;;;;;0.72;0.60;;;;;;;8.73;100.00;98827.10;1678725;83;21062;-47
2022/09/29 00:37:21;;;;;;;0.62;0.60;;;;;;;8.70;100.00;98828.60;1668904;83;21579;-48
2022/09/29 00:39:47;;;;;;;2.50;0.60;;;;;;;8.67;100.00;98832.82;1670036;83;21089;-47
2022/09/29 00:42:19;;;;;;;1.77;0.60;;;;;;;8.65;100.00;98832.03;1671302;83;21974;-47
2022/09/29 00:44:57;;;;;;;2.25;0.70;;;;;;;8.61;100.00;98831.79;1670448;83;21130;-47
2022/09/29 00:47:24;;;;;;;1.05;0.50;;;;;;;8.54;100.00;98832.61;1677550;83;21148;-47
2022/09/29 00:49:59;;;;;;;0.72;0.50;;;;;;;8.49;100.00;98844.07;1680195;83;21104;-47
2022/09/29 00:52:33;;;;;;;0.70;0.50;;;;;;;8.46;100.00;98844.23;1664784;84;21141;-47
2022/09/29 00:55:25;;;;;;;3.37;0.40;;;;;;;8.47;100.00;98844.63;1672921;83;21820;-47
2022/09/29 00:57:59;;;;;;;1.05;0.50;;;;;;;8.50;100.00;98846.28;1676460;83;21000;-47
2022/09/29 01:00:25;;;;;;;0.57;0.42;;;;;;;8.52;100.00;98854.61;1677205;83;21073;-47
2022/09/29 01:03:02;;;;;;;0.57;0.55;;;;;;;8.55;100.00;98861.64;1673943;83;21128;-47
2022/09/29 01:05:33;;;;;;;2.98;0.50;;;;;;;8.56;100.00;98858.02;1668872;83;21121;-47
2022/09/29 01:08:13;;;;;;;0.80;0.50;;;;;;;8.57;100.00;98861.95;1671993;83;21862;-48
2022/09/29 01:10:40;;;;;;;0.75;0.60;;;;;;;8.56;100.00;98865.58;1684523;83;21077;-47
2022/09/29 01:13:06;;;;;;;3.72;0.60;;;;;;;8.55;100.00;98859.83;1668945;83;21216;-48
2022/09/29 01:15:33;;;;;;;0.78;0.60;;;;;;;8.53;100.00;98866.21;1669182;83;21121;-47
2022/09/29 01:18:01;;;;;;;2.58;0.50;;;;;;;8.50;100.00;98868.61;1668986;83;21643;-47
2022/09/29 01:20:28;;;;;;;2.75;0.47;;;;;;;8.47;100.00;98875.47;1652103;83;21843;-47
2022/09/29 01:23:17;;;;;;;2.35;0.40;;;;;;;8.45;100.00;98873.33;1662134;83;21108;-47
2022/09/29 01:26:06;;;;;;;0.47;0.40;;;;;;;8.41;100.00;98872.25;1672653;83;21532;-47
2022/09/29 01:28:53;;;;;;;1.00;0.40;;;;;;;8.39;100.00;98866.09;1676896;83;21073;-47
2022/09/29 01:31:40;;;;;;;1.65;0.40;;;;;;;8.37;100.00;98872.01;1719862;80;21576;-47
2022/09/29 01:34:28;;;;;;;2.30;0.40;;;;;;;8.35;100.00;98874.30;1717553;80;22902;-47
2022/09/29 01:37:06;;;;;;;0.72;0.40;;;;;;;8.34;100.00;98885.09;1721463;80;21398;-47
2022/09/29 01:39:39;;;;;;;2.15;0.88;;;;;;;8.32;100.00;98885.20;1722136;80;21077;-47
2022/09/29 01:42:18;;;;;;;0.80;0.50;;;;;;;8.30;100.00;98880.35;1719928;80;21050;-47
2022/09/29 01:45:03;;;;;;;1.60;0.40;;;;;;;8.29;100.00;98885.31;1720280;80;21016;-47
2022/09/29 01:47:37;;;;;;;5.45;0.50;;;;;;;8.26;100.00;98885.94;1723738;81;21977;-47
2022/09/29 01:50:13;;;;;;;0.75;0.40;;;;;;;8.22;100.00;98895.97;1709628;81;21046;-47
2022/09/29 01:52:43;;;;;;;7.33;0.42;;;;;;;8.21;100.00;98890.69;1704545;81;21065;-47
2022/09/29 01:55:14;;;;;;;1.00;0.40;;;;;;;8.20;100.00;98890.29;1713540;81;21062;-47
2022/09/29 01:57:56;;;;;;;2.20;0.37;;;;;;;8.20;100.00;98895.66;1700236;81;22036;-45
2022/09/29 02:00:30;;;;;;;2.87;0.37;;;;;;;8.22;100.00;98901.81;1715152;81;21917;-48
2022/09/29 02:03:00;;;;;;;2.62;0.40;;;;;;;8.24;100.00;98898.58;1717403;81;21098;-48
2022/09/29 02:05:54;;;;;;;0.90;0.40;;;;;;;8.26;100.00;98896.66;1699730;82;21035;-48
2022/09/29 02:08:31;;;;;;;0.55;0.50;;;;;;;8.28;100.00;98901.00;1709087;81;21042;-48
2022/09/29 02:11:04;;;;;;;6.22;0.60;;;;;;;8.31;100.00;98906.25;1708750;81;21375;-48
2022/09/29 02:13:34;;;;;;;0.50;0.47;;;;;;;8.33;100.00;98910.20;1714140;81;21802;-48
2022/09/29 02:16:01;;;;;;;4.03;0.40;;;;;;;8.33;100.00;98915.09;1699716;81;21245;-48
2022/09/29 02:18:32;;;;;;;0.50;0.50;;;;;;;8.34;100.00;98913.25;1713034;81;21125;-48
2022/09/29 02:20:59;;;;;;;0.47;0.40;;;;;;;8.33;100.00;98909.73;1710585;81;21066;-48
2022/09/29 02:23:25;;;;;;;0.80;0.45;;;;;;;8.29;100.00;98908.58;1711588;81;21050;-48
2022/09/29 02:25:51;;;;;;;0.78;0.50;;;;;;;8.24;100.00;98909.30;1660309;84;22711;-48
2022/09/29 02:28:17;;;;;;;0.40;0.30;;;;;;;8.23;100.00;98920.97;1657898;84;21089;-48
2022/09/29 02:30:44;;;;;;;2.05;0.30;;;;;;;8.22;100.00;98912.06;1621647;84;21107;-49
2022/09/29 02:33:21;;;;;;;0.40;0.33;;;;;;;8.25;100.00;98914.56;1712022;81;21662;-49
2022/09/29 02:35:59;;;;;;;3.45;0.40;;;;;;;8.28;100.00;98917.09;1714953;81;21074;-48
2022/09/29 02:38:31;;;;;;;0.50;0.40;;;;;;;8.32;100.00;98914.70;1709850;81;22436;-48
2022/09/29 02:41:11;;;;;;;0.53;0.45;;;;;;;8.35;100.00;98910.97;1711332;81;20983;-49
2022/09/29 02:44:01;;;;;;;0.80;0.50;;;;;;;8.39;100.00;98901.83;1662955;81;21002;-48
2022/09/29 02:46:35;;;;;;;2.00;0.50;;;;;;;8.42;100.00;98902.14;1718818;80;20971;-49
2022/09/29 02:49:37;;;;;;;1.20;0.50;;;;;;;8.39;100.00;98907.66;1718256;80;20994;-48
2022/09/29 02:52:43;;;;;;;8.63;0.50;;;;;;;8.38;100.00;98907.27;1722788;80;21400;-47
2022/09/29 02:55:37;;;;;;;1.50;0.40;;;;;;;8.38;100.00;98914.84;1720974;80;20982;-49
2022/09/29 02:58:08;;;;;;;0.88;0.50;;;;;;;8.38;100.00;98911.28;1731701;80;21540;-48
2022/09/29 03:00:35;;;;;;;1.52;0.30;;;;;;;8.39;100.00;98910.34;1723031;80;21033;-48
2022/09/29 03:03:01;;;;;;;0.90;0.30;;;;;;;8.40;100.00;98914.77;1720860;80;20986;-48
2022/09/29 03:05:27;;;;;;;1.17;0.40;;;;;;;8.41;100.00;98917.38;1720148;80;22416;-48
2022/09/29 03:07:54;;;;;;;0.68;0.40;;;;;;;8.43;100.00;98914.11;1719310;80;21010;-48
2022/09/29 03:10:20;;;;;;;1.47;0.40;;;;;;;8.43;100.00;98913.23;1719910;80;21033;-47
2022/09/29 03:12:48;;;;;;;1.75;0.60;;;;;;;8.43;100.00;98911.89;1723702;80;20955;-49
2022/09/29 03:15:15;;;;;;;1.12;0.40;;;;;;;8.45;100.00;98905.52;1718689;80;21037;-47
2022/09/29 03:17:42;;;;;;;1.65;0.50;;;;;;;8.45;100.00;98915.38;1719065;80;21871;-47
2022/09/29 03:20:09;;;;;;;0.40;0.40;;;;;;;8.44;100.00;98908.27;1717454;80;21018;-47
2022/09/29 03:22:36;;;;;;;1.17;0.47;;;;;;;8.46;100.00;98917.11;1718017;80;21097;-49
2022/09/29 03:25:05;;;;;;;0.45;0.40;;;;;;;8.45;100.00;98928.78;1719151;80;21132;-49
2022/09/29 03:27:32;;;;;;;2.25;0.30;;;;;;;8.44;100.00;98914.50;1726790;80;21583;-47
2022/09/29 03:30:00;;;;;;;1.77;0.40;;;;;;;8.46;100.00;98914.42;1716070;80;21962;-48
2022/09/29 03:32:27;;;;;;;1.85;0.50;;;;;;;8.45;100.00;98914.03;1714569;80;21515;-48
2022/09/29 03:34:53;;;;;;;0.60;0.40;;;;;;;8.46;100.00;98909.94;1719266;80;21053;-47
2022/09/29 03:37:20;;;;;;;0.57;0.50;;;;;;;8.47;100.00;98917.03;1718567;80;21101;-49
2022/09/29 03:39:46;;;;;;;0.75;0.57;;;;;;;8.50;100.00;98921.38;1716087;80;21082;-48
2022/09/29 03:42:13;;;;;;;0.60;0.50;;;;;;;8.51;100.00;98921.74;1722783;80;21921;-48
2022/09/29 03:44:39;;;;;;;1.50;0.60;;;;;;;8.52;100.00;98926.16;1718066;80;21093;-49
2022/09/29 03:47:07;;;;;;;1.92;0.57;;;;;;;8.49;100.00;98928.56;1722623;80;21214;-49
2022/09/29 03:49:34;;;;;;;2.58;0.50;;;;;;;8.45;100.00;98930.99;1708784;81;21128;-48
2022/09/29 03:52:01;;;;;;;0.60;0.60;;;;;;;8.45;100.00;98938.17;1722561;81;21038;-49
2022/09/29 03:54:27;;;;;;;2.12;0.45;;;;;;;8.46;100.00;98945.27;1721523;81;21830;-48
2022/09/29 03:56:54;;;;;;;2.17;0.57;;;;;;;8.48;100.00;98946.06;1710994;81;21077;-49
2022/09/29 03:59:20;;;;;;;2.12;0.60;;;;;;;8.51;100.00;98950.77;1714290;81;21061;-49
2022/09/29 04:01:46;;;;;;;1.82;0.50;;;;;;;8.53;100.00;98957.41;1711470;81;21778;-48
2022/09/29 04:04:13;;;;;;;2.58;0.60;;;;;;;8.57;100.00;98964.36;1709211;81;21092;-48
2022/09/29 04:06:40;;;;;;;2.12;0.50;;;;;;;8.60;100.00;98962.84;1709695;81;21815;-49
2022/09/29 04:09:07;;;;;;;2.98;0.70;;;;;;;8.63;100.00;98960.00;1708106;81;21074;-48
2022/09/29 04:11:33;;;;;;;4.58;0.72;;;;;;;8.66;100.00;98966.09;1707658;81;21540;-49
2022/09/29 04:13:59;;;;;;;2.15;0.70;;;;;;;8.68;100.00;98961.48;1710320;81;21054;-49
2022/09/29 04:16:26;;;;;;;0.57;0.57;;;;;;;8.69;100.00;98961.88;1718663;81;21054;-46
2022/09/29 04:18:53;;;;;;;0.70;0.60;;;;;;;8.68;100.00;98964.17;1717170;81;22486;-46
2022/09/29 04:21:20;;;;;;;1.80;0.60;;;;;;;8.69;100.00;98961.02;1708839;81;21102;-45
2022/09/29 04:23:46;;;;;;;1.62;0.57;;;;;;;8.70;100.00;98964.96;1726613;81;21030;-45
2022/09/29 04:26:13;;;;;;;0.70;0.42;;;;;;;8.73;100.00;98963.47;1715409;81;21057;-48
2022/09/29 04:28:39;;;;;;;3.08;0.50;;;;;;;8.79;100.00;98974.81;1710458;81;21130;-46
2022/09/29 04:31:06;;;;;;;3.50;0.60;;;;;;;8.83;100.00;98977.27;1652757;84;21404;-45
2022/09/29 04:33:32;;;;;;;0.55;0.55;;;;;;;8.89;100.00;98974.24;1673453;83;21636;-48
2022/09/29 04:35:59;;;;;;;1.60;0.70;;;;;;;8.95;100.00;98977.06;1673887;83;21105;-48
2022/09/29 04:38:26;;;;;;;0.70;0.60;;;;;;;9.00;100.00;98976.36;1669157;83;21101;-48
2022/09/29 04:40:52;;;;;;;1.30;0.60;;;;;;;9.06;100.00;98971.52;1673131;83;21105;-48
2022/09/29 04:43:19;;;;;;;3.22;0.68;;;;;;;9.10;100.00;98970.89;1678759;83;21813;-48
2022/09/29 04:45:45;;;;;;;1.32;0.50;;;;;;;9.13;100.00;98975.20;1673417;83;21145;-48
2022/09/29 04:48:13;;;;;;;1.85;0.40;;;;;;;9.16;100.00;98967.86;1674017;83;21100;-48
2022/09/29 04:50:40;;;;;;;2.35;0.60;;;;;;;9.21;100.00;98959.53;1664606;83;21181;-48
2022/09/29 04:53:07;;;;;;;0.72;0.47;;;;;;;9.25;100.00;98961.98;1696162;82;21088;-48
2022/09/29 04:55:37;;;;;;;0.50;0.50;;;;;;;9.31;100.00;98961.64;1723860;80;21721;-48
2022/09/29 04:58:03;;;;;;;0.90;0.65;;;;;;;9.35;100.00;98966.38;1720873;80;21543;-48
2022/09/29 05:00:31;;;;;;;0.95;0.70;;;;;;;9.39;100.00;98963.42;1716427;80;21035;-48
2022/09/29 05:02:59;;;;;;;3.27;0.98;;;;;;;9.43;100.00;98959.63;1716983;80;21198;-48
2022/09/29 05:05:25;;;;;;;2.72;0.80;;;;;;;9.51;100.00;98963.22;1717040;80;21086;-48
2022/09/29 05:07:54;;;;;;;2.87;0.80;;;;;;;9.57;100.00;98961.52;1718047;80;22574;-48
2022/09/29 05:10:21;;;;;;;1.45;0.78;;;;;;;9.64;100.00;98973.64;1716952;80;21057;-48
2022/09/29 05:12:49;;;;;;;0.80;0.80;;;;;;;9.71;100.00;98970.99;1722167;80;21026;-48
2022/09/29 05:15:17;;;;;;;1.98;0.60;;;;;;;9.77;100.00;98978.73;1717656;80;21046;-48
2022/09/29 05:17:43;;;;;;;1.00;0.70;;;;;;;9.86;100.00;98982.72;1725881;80;21046;-47
2022/09/29 05:20:10;;;;;;;1.37;0.78;;;;;;;9.93;100.00;98981.88;1718344;80;21831;-47
2022/09/29 05:22:38;;;;;;;0.70;0.70;;;;;;;10.01;100.00;98983.64;1736269;80;21049;-47
2022/09/29 05:25:07;;;;;;;1.45;0.70;;;;;;;10.09;100.00;98987.62;1722949;80;21555;-47
2022/09/29 05:27:35;;;;;;;2.17;0.80;;;;;;;10.20;100.00;98991.06;1731521;80;21013;-48
2022/09/29 05:30:03;;;;;;;0.68;0.68;;;;;;;10.30;100.00;98992.23;1717069;80;21104;-48
2022/09/29 05:32:29;;;;;;;0.98;0.78;;;;;;;10.39;100.00;98994.85;1718281;80;21827;-48
2022/09/29 05:34:56;;;;;;;3.17;0.80;;;;;;;10.47;100.00;98993.44;1719569;80;20982;-48
2022/09/29 05:37:23;;;;;;;1.35;0.80;;;;;;;10.55;100.00;98987.12;1737843;80;20979;-47
2022/09/29 05:39:49;;;;;;;2.77;0.82;;;;;;;10.62;100.00;98994.37;1720845;80;20978;-47
2022/09/29 05:42:16;;;;;;;1.62;0.70;;;;;;;10.67;100.00;98996.77;1717752;80;21009;-47
2022/09/29 05:44:42;;;;;;;0.60;0.60;;;;;;;10.72;100.00;98991.48;1729701;80;22560;-47
2022/09/29 05:47:08;;;;;;;0.70;0.62;;;;;;;10.75;100.00;98989.95;1721845;80;21006;-47
2022/09/29 05:49:35;;;;;;;0.70;0.70;;;;;;;10.80;100.00;98993.73;1729569;80;20970;-47
2022/09/29 05:52:03;;;;;;;0.80;0.70;;;;;;;10.88;100.00;98993.66;1731137;80;21638;-48
2022/09/29 05:54:30;;;;;;;1.42;0.57;;;;;;;10.88;100.00;98993.66;1723488;80;20991;-47
2022/09/29 05:56:56;;;;;;;0.65;0.60;;;;;;;10.92;100.00;98996.52;1727011;80;21848;-47
2022/09/29 05:59:23;;;;;;;0.70;0.68;;;;;;;10.97;100.00;98998.44;1724073;80;21433;-48
2022/09/29 06:01:49;;;;;;;1.00;0.60;;;;;;;11.05;100.00;98996.65;1721878;80;21103;-48
2022/09/29 06:04:17;;;;;;;0.55;0.55;;;;;;;11.08;100.00;98998.27;1728835;80;21073;-47
2022/09/29 06:06:46;;;;;;;0.75;0.50;;;;;;;11.16;100.00;99012.98;1729901;80;20987;-47
2022/09/29 06:09:13;;;;;;;5.10;0.50;;;;;;;11.16;100.00;99012.98;1725801;80;21817;-47
2022/09/29 06:11:39;;;;;;;1.90;0.60;;;;;;;11.21;100.00;99009.55;1727484;80;21333;-48
2022/09/29 06:14:06;;;;;;;0.75;0.55;;;;;;;11.31;100.00;99015.22;1727858;80;21017;-48
2022/09/29 06:16:33;;;;;;;1.92;0.55;;;;;;;11.31;100.00;99015.22;1726235;80;21813;-48
2022/09/29 06:19:01;;;;;;;0.68;0.60;;;;;;;11.35;100.00;99017.61;1726946;80;21598;-47
2022/09/29 06:21:28;;;;;;;0.70;0.70;;;;;;;11.35;100.00;99017.61;1726132;80;21787;-48
2022/09/29 06:23:54;;;;;;;0.60;0.60;;;;;;;11.36;100.00;99030.12;1723884;80;21542;-48
2022/09/29 06:26:21;;;;;;;3.35;0.50;;;;;;;11.36;100.00;99016.66;1725635;80;21045;-48
2022/09/29 06:28:48;;;;;;;0.50;0.50;;;;;;;11.36;100.00;99018.00;1727498;80;21044;-48
2022/09/29 06:31:17;;;;;;;0.68;0.53;;;;;;;11.38;100.00;99012.52;1721680;80;21703;-47
2022/09/29 06:33:43;;;;;;;1.25;0.70;;;;;;;11.42;100.00;99011.83;1725221;80;21866;-47
2022/09/29 06:39:14;;;;;;;1.45;0.60;;;;;;;11.52;100.00;99012.98;1727407;80;20994;-48
2022/09/29 06:41:40;;;;;;;1.10;0.60;;;;;;;11.52;100.00;99012.98;1721542;80;21228;-48
2022/09/29 06:44:07;;;;;;;0.60;0.60;;;;;;;11.58;100.00;99030.97;1727501;80;21041;-48
2022/09/29 06:46:35;;;;;;;0.60;0.50;;;;;;;11.63;100.00;99032.05;1724433;80;21823;-48
2022/09/29 06:49:01;;;;;;;1.70;0.60;;;;;;;11.67;100.00;99031.73;1723352;80;21060;-48
2022/09/29 06:51:28;;;;;;;0.60;0.57;;;;;;;11.74;100.00;99033.55;1725017;80;21088;-48
2022/09/29 06:53:55;;;;;;;2.17;0.60;;;;;;;11.80;100.00;99033.69;1720311;80;21032;-48
2022/09/29 06:56:21;;;;;;;2.35;0.70;;;;;;;11.85;100.00;99030.20;1722093;80;21367;-47
2022/09/29 06:58:48;;;;;;;0.95;0.50;;;;;;;11.89;100.00;99037.14;1726785;80;21808;-48
2022/09/29 07:01:14;;;;;;;1.77;0.80;;;;;;;11.94;100.00;99037.70;1723808;80;21056;-48
2022/09/29 07:03:41;;;;;;;0.60;0.50;;;;;;;11.99;100.00;99043.67;1726768;80;21697;-48
2022/09/29 07:06:08;;;;;;;0.82;0.60;;;;;;;12.03;100.00;99051.93;1729778;80;21038;-48
2022/09/29 07:08:35;;;;;;;0.60;0.60;;;;;;;12.08;100.00;99049.31;1726482;80;21192;-48
2022/09/29 07:11:06;;;;;;;2.25;0.60;;;;;;;12.18;100.00;99052.75;1722093;80;23096;-48
2022/09/29 07:13:31;;;;;;;0.95;0.60;;;;;;;12.24;100.00;99047.84;1721973;80;21041;-47
2022/09/29 07:16:07;;;;;;;0.80;0.70;;;;;;;12.34;100.00;99053.47;1729607;80;21432;-46
2022/09/29 07:18:36;;;;;;;0.90;0.60;;;;;;;12.41;100.00;99048.07;1721505;80;21499;-46
2022/09/29 07:21:04;;;;;;;0.50;0.50;;;;;;;12.51;100.00;99047.81;1722824;80;21559;-49
2022/09/29 07:23:31;;;;;;;1.05;0.53;;;;;;;12.59;100.00;99046.81;1722236;80;21929;-49
2022/09/29 07:25:58;;;;;;;0.55;0.50;;;;;;;12.67;100.00;99044.48;1722751;80;21635;-49
2022/09/29 07:28:26;;;;;;;0.53;0.40;;;;;;;12.76;100.00;99038.95;1725183;80;21021;-49
2022/09/29 07:31:05;;;;;;;0.40;0.40;;;;;;;12.85;100.00;99036.45;1726008;80;21053;-48
2022/09/29 07:33:32;;;;;;;3.42;0.50;;;;;;;12.98;100.00;99036.48;1724039;80;21056;-48
2022/09/29 07:35:59;;;;;;;0.60;0.40;;;;;;;13.13;100.00;99031.39;1723127;80;21795;-49
2022/09/29 07:38:26;;;;;;;1.82;0.30;;;;;;;13.27;100.00;99029.05;1728231;80;21055;-46
2022/09/29 07:40:53;;;;;;;0.93;0.30;;;;;;;13.37;100.00;99011.22;1668198;83;21519;-46
2022/09/29 07:43:20;;;;;;;0.23;0.23;;;;;;;13.48;100.00;99015.38;1721481;80;21071;-48
2022/09/29 07:45:50;;;;;;;0.53;0.30;;;;;;;13.55;100.00;99019.37;1725002;80;21049;-47
2022/09/29 07:48:16;;;;;;;4.05;0.30;;;;;;;13.61;100.00;99027.03;1722447;80;22511;-46
2022/09/29 07:50:43;;;;;;;0.42;0.30;;;;;;;13.66;100.00;99038.02;1719648;80;21041;-49
2022/09/29 07:53:10;;;;;;;1.40;0.30;;;;;;;13.69;100.00;99031.91;1724427;80;21041;-47
2022/09/29 07:55:38;;;;;;;0.30;0.30;;;;;;;13.71;100.00;99038.05;1725746;80;21593;-49
2022/09/29 07:58:05;;;;;;;0.30;0.30;;;;;;;13.76;100.00;99039.09;1725058;80;21074;-46
2022/09/29 08:00:33;;;;;;;2.52;0.30;;;;;;;13.80;100.00;99042.80;1727888;80;21871;-48
2022/09/29 08:03:04;;;;;;;0.62;0.30;;;;;;;13.88;100.00;99050.36;1721828;80;21084;-47
2022/09/29 08:05:32;;;;;;;0.30;0.30;;;;;;;13.97;100.00;99050.55;1721697;80;21041;-46
2022/09/29 08:08:02;;;;;;;0.60;0.30;;;;;;;14.08;100.00;99057.89;1719975;80;21097;-46
2022/09/29 08:10:31;;;;;;;0.75;0.30;;;;;;;14.19;100.00;99050.34;1725677;80;21061;-49
2022/09/29 08:12:58;;;;;;;0.30;0.30;;;;;;;14.30;100.00;99048.55;1722949;80;21757;-46
2022/09/29 08:15:26;;;;;;;0.25;0.25;;;;;;;14.38;100.00;99040.75;1723415;80;21325;-48
2022/09/29 08:17:53;;;;;;;0.30;0.30;;;;;;;14.49;100.00;99041.30;1724395;80;21049;-46
2022/09/29 08:20:21;;;;;;;0.60;0.45;;;;;;;14.55;100.00;99034.55;1721768;80;21076;-45
2022/09/29 08:22:48;;;;;;;0.85;0.30;;;;;;;14.61;100.00;99039.52;1723140;80;20974;-47
2022/09/29 08:25:15;;;;;;;0.20;0.20;;;;;;;14.66;100.00;99036.83;1724953;80;21820;-46
2022/09/29 08:27:44;;;;;;;3.80;0.30;;;;;;;14.76;100.00;99039.21;1728003;80;20997;-47
2022/09/29 08:30:11;;;;;;;0.30;0.20;;;;;;;14.87;100.00;99035.69;1728357;80;20971;-46
2022/09/29 08:32:38;;;;;;;0.37;0.20;;;;;;;15.00;100.00;99038.30;1728411;80;20991;-49
2022/09/29 08:35:05;;;;;;;2.05;0.30;;;;;;;15.12;100.00;99037.36;1726073;80;20998;-49
2022/09/29 08:37:32;;;;;;;0.20;0.20;;;;;;;15.25;100.00;99034.05;1727592;80;21798;-50
2022/09/29 08:39:58;;;;;;;1.42;0.20;;;;;;;15.38;100.00;99036.17;1724832;80;20970;-50
2022/09/29 08:42:50;;;;;;;0.55;0.23;;;;;;;15.49;100.00;99029.38;1729772;80;21028;-49
2022/09/29 08:45:22;;;;;;;0.72;0.30;;;;;;;15.58;100.00;99035.95;1724491;80;21113;-49
2022/09/29 08:47:48;;;;;;;3.58;0.20;;;;;;;15.71;100.00;99042.63;1723167;80;21663;-50
2022/09/29 08:50:43;;;;;;;0.72;0.40;;;;;;;15.80;100.00;99040.05;1716387;81;21935;-48
2022/09/29 08:53:12;;;;;;;1.47;0.40;;;;;;;15.88;100.00;99040.78;1707820;80;21007;-48
2022/09/29 08:56:01;;;;;;;2.87;0.40;;;;;;;15.99;100.00;99048.06;1699046;82;20971;-47
2022/09/29 08:58:28;;;;;;;0.50;0.40;;;;;;;16.08;100.00;99036.42;1714562;81;21533;-49
2022/09/29 09:01:18;;;;;;;1.22;0.40;;;;;;;16.17;100.00;99030.23;1715762;81;20967;-47
2022/09/29 09:04:20;;;;;;;3.70;0.40;;;;;;;16.25;100.00;99030.46;1719028;81;21348;-46
2022/09/29 09:07:01;;;;;;;0.60;0.40;;;;;;;16.31;100.00;99024.55;1716528;81;20992;-46
2022/09/29 09:09:40;;;;;;;1.52;0.40;;;;;;;16.35;100.00;99027.36;1711454;81;20987;-49
2022/09/29 09:12:25;;;;;;;1.95;0.30;;;;;;;16.39;100.00;99026.62;1712485;81;21497;-47
2022/09/29 09:15:28;;;;;;;1.42;0.40;;;;;;;16.41;100.00;99028.23;1711909;81;21415;-49
2022/09/29 09:18:27;;;;;;;1.95;0.40;;;;;;;16.45;100.00;99032.39;1714888;81;21933;-47
2022/09/29 09:21:11;;;;;;;0.33;0.30;;;;;;;16.45;100.00;99030.17;1707788;81;21038;-47
2022/09/29 09:24:11;;;;;;;2.95;0.30;;;;;;;16.44;100.00;99031.16;1710263;81;21112;-48
2022/09/29 09:26:45;;;;;;;0.75;0.33;;;;;;;16.44;100.00;99027.09;1715874;81;21278;-47
2022/09/29 09:29:27;;;;;;;1.50;0.30;;;;;;;16.41;100.00;99029.59;1706940;81;21316;-48
2022/09/29 09:32:02;;;;;;;2.95;0.30;;;;;;;16.40;100.00;99023.78;1711778;81;21826;-47
2022/09/29 09:34:38;;;;;;;0.35;0.20;;;;;;;16.41;100.00;99020.57;1712945;81;21034;-47
2022/09/29 09:37:07;;;;;;;0.80;0.30;;;;;;;16.40;100.00;99015.63;1718378;81;21493;-46
2022/09/29 09:39:58;;;;;;;0.40;0.30;;;;;;;16.42;100.00;99016.84;1700241;81;21050;-46
2022/09/29 09:42:29;;;;;;;2.40;0.40;;;;;;;16.46;100.00;99017.83;1712859;81;21603;-47
2022/09/29 09:45:04;;;;;;;0.45;0.28;;;;;;;16.50;100.00;99028.78;1714975;81;23193;-49
2022/09/29 09:47:36;;;;;;;0.20;0.20;;;;;;;16.53;100.00;99019.03;1677977;83;21261;-46
2022/09/29 09:50:09;;;;;;;0.30;0.30;;;;;;;16.57;100.00;99025.95;1670990;83;21702;-47
2022/09/29 09:52:52;;;;;;;1.87;0.30;;;;;;;16.59;100.00;99028.02;1688534;83;21696;-48
2022/09/29 09:55:24;;;;;;;0.20;0.20;;;;;;;16.60;100.00;99024.80;1688576;83;21130;-47
2022/09/29 09:58:26;;;;;;;1.20;0.20;;;;;;;16.61;100.00;99022.48;1673254;83;21784;-47
2022/09/29 10:01:05;;;;;;;0.50;0.30;;;;;;;16.62;100.00;99025.08;1675514;83;21044;-49
2022/09/29 10:03:33;;;;;;;0.20;0.20;;;;;;;16.64;100.00;99022.24;1674843;83;21067;-48
2022/09/29 10:06:00;;;;;;;0.30;0.30;;;;;;;16.68;100.00;99014.18;1696718;82;21052;-48
2022/09/29 10:08:38;;;;;;;1.10;0.80;;;;;;;16.74;100.00;99029.12;1698733;82;21224;-46
2022/09/29 10:11:24;;;;;;;0.57;0.57;;;;;;;16.78;100.00;99030.56;1679808;83;22718;-49
2022/09/29 10:14:21;;;;;;;0.23;0.20;;;;;;;16.81;100.00;99024.88;1673413;83;21123;-46
2022/09/29 10:16:57;;;;;;;0.93;0.30;;;;;;;16.84;100.00;99030.91;1696219;82;21565;-49
2022/09/29 10:19:44;;;;;;;0.30;0.20;;;;;;;16.86;100.00;99033.00;1680112;83;21074;-47
2022/09/29 10:22:13;;;;;;;0.70;0.23;;;;;;;16.94;100.00;99026.91;1705391;82;21071;-46
2022/09/29 10:24:39;;;;;;;0.25;0.20;;;;;;;17.03;100.00;99031.06;1680132;83;21895;-45
2022/09/29 10:27:05;;;;;;;1.10;0.95;;;;;;;17.13;99.97;99028.41;1671189;83;21040;-46
2022/09/29 10:29:43;;;;;;;1.10;1.00;;;;;;;17.22;99.82;99028.98;1631432;83;21203;-48
2022/09/29 10:32:18;;;;;;;3.17;0.75;;;;;;;17.32;99.66;99030.41;1677133;83;21735;-48
2022/09/29 10:34:53;;;;;;;1.35;0.45;;;;;;;17.40;99.56;99034.67;1678143;82;23643;-49
2022/09/29 10:37:36;;;;;;;0.50;0.40;;;;;;;17.41;99.55;99025.52;1656534;84;22958;-46
2022/09/29 10:40:11;;;;;;;0.75;0.47;;;;;;;17.42;99.53;99026.39;1697249;82;21092;-46
2022/09/29 10:42:42;;;;;;;0.30;0.20;;;;;;;17.42;99.52;99026.39;1682182;83;21087;-47
2022/09/29 10:45:23;;;;;;;1.05;0.30;;;;;;;17.43;99.50;99020.81;1682395;83;21143;-49
2022/09/29 10:48:10;;;;;;;2.25;0.30;;;;;;;17.46;99.48;99016.94;1694331;82;21509;-46
2022/09/29 10:50:50;;;;;;;1.05;0.20;;;;;;;17.47;99.43;99022.75;1695802;82;23090;-47
2022/09/29 10:53:37;;;;;;;0.20;0.20;;;;;;;17.49;99.39;99014.83;1680325;83;21553;-47
2022/09/29 10:56:12;;;;;;;0.20;0.10;;;;;;;17.54;99.34;99014.41;1679399;83;21831;-49
2022/09/29 10:58:43;;;;;;;2.75;0.10;;;;;;;17.62;99.20;99017.34;1678586;83;21032;-46
2022/09/29 11:03:26;;;;;;;0.10;0.10;;;;;;;17.78;100.00;99014.14;1777887;78;30462;-46
2022/09/29 11:06:03;;;;;;;0.20;0.10;;;;;;;17.85;94.44;99022.98;1741493;80;21079;-48
2022/09/29 11:08:30;;;;;;;0.10;0.10;;;;;;;17.91;94.76;99024.28;1743510;80;21710;-46
2022/09/29 11:11:21;;;;;;;0.47;0.10;;;;;;;17.94;94.97;99020.80;1738486;80;21696;-49
2022/09/29 11:13:48;;;;;;;4.28;0.13;;;;;;;18.00;95.12;99020.73;1741289;80;21344;-47
2022/09/29 11:16:39;;;;;;;0.78;0.20;;;;;;;18.07;95.22;99014.59;1737890;80;21146;-48
2022/09/29 11:19:10;;;;;;;0.30;0.30;;;;;;;18.12;95.32;99020.97;1741702;80;21518;-46
2022/09/29 11:22:02;;;;;;;0.50;0.30;;;;;;;18.15;95.38;99018.84;1760709;80;21825;-49
2022/09/29 11:24:54;;;;;;;0.30;0.30;;;;;;;18.20;95.47;99012.13;1701985;81;21573;-46
2022/09/29 11:27:41;;;;;;;0.10;0.10;;;;;;;18.25;95.50;99016.14;1696154;83;21527;-46
2022/09/29 11:30:18;;;;;;;0.30;0.20;;;;;;;18.31;95.55;99011.98;1705263;82;21065;-46
2022/09/29 11:32:57;;;;;;;1.57;0.20;;;;;;;18.34;95.59;99011.22;1707569;82;20994;-47
2022/09/29 11:35:41;;;;;;;0.40;0.20;;;;;;;18.39;95.64;99021.68;1707766;82;21980;-45
2022/09/29 11:38:19;;;;;;;1.27;0.20;;;;;;;18.42;95.69;99015.45;1718326;81;20981;-46
2022/09/29 11:40:54;;;;;;;0.88;0.20;;;;;;;18.44;95.71;99012.09;1691484;83;21003;-45
2022/09/29 11:43:46;;;;;;;0.28;0.20;;;;;;;18.48;95.75;99008.57;1678600;82;21447;-47
2022/09/29 11:46:53;;;;;;;0.20;0.20;;;;;;;18.52;95.76;99014.11;1706578;82;21017;-46
2022/09/29 11:49:38;;;;;;;0.40;0.20;;;;;;;18.58;95.77;99020.88;1709402;82;21985;-47
2022/09/29 11:52:49;;;;;;;1.98;0.20;;;;;;;18.57;95.80;99020.02;1662804;82;21037;-45
2022/09/29 11:55:49;;;;;;;1.87;0.20;;;;;;;18.54;95.88;99024.38;1698839;82;21002;-46
2022/09/29 11:58:33;;;;;;;0.20;0.10;;;;;;;18.49;95.92;99023.92;1698096;82;21000;-46